DLH8MC EDDB-EDDC
Flight info
| Callsign | DLH8MC |
|---|---|
| Flight time | N/A |
| Altitude | 28000 |
| Route | EDDC/04 |
| Aircraft | A321/M-SDE2E3FGIJ1LORWXYZ/HB1 |
Departure
| Time | N/A |
|---|---|
| Airport | Berlin Brandenburg Airport (EDDB) |
Arrival
| Time | 2026-04-30 21:01 |
|---|---|
| Airport | Dresden Airport (EDDC) |
| Time | Latitude | Longitude | Altitude | Speed | Heading |
|---|---|---|---|---|---|
| 2026-04-30 20:54 | 50.93010 | 13.43123 | 5017 ft | 205 kts | 106° |
| 2026-04-30 20:54 | 50.92768 | 13.45315 | 5022 ft | 201 kts | 89° |
| 2026-04-30 20:55 | 50.93594 | 13.49436 | 5016 ft | 200 kts | 54° |
| 2026-04-30 20:55 | 50.94571 | 13.51002 | 5012 ft | 201 kts | 42° |
| 2026-04-30 20:55 | 50.95623 | 13.52428 | 5001 ft | 194 kts | 42° |
| 2026-04-30 20:56 | 50.97569 | 13.55076 | 4663 ft | 179 kts | 42° |
| 2026-04-30 20:56 | 50.98508 | 13.56356 | 4427 ft | 178 kts | 42° |
| 2026-04-30 20:56 | 51.00375 | 13.58903 | 3945 ft | 176 kts | 42° |
| 2026-04-30 20:57 | 51.01304 | 13.60172 | 3701 ft | 176 kts | 41° |
| 2026-04-30 20:57 | 51.02234 | 13.61444 | 3459 ft | 176 kts | 41° |
| 2026-04-30 20:57 | 51.03141 | 13.62683 | 3215 ft | 171 kts | 41° |
| 2026-04-30 20:58 | 51.04871 | 13.65053 | 2751 ft | 156 kts | 41° |
| 2026-04-30 20:58 | 51.05663 | 13.66133 | 2577 ft | 141 kts | 41° |
| 2026-04-30 20:58 | 51.06404 | 13.67143 | 2354 ft | 140 kts | 41° |
| 2026-04-30 20:58 | 51.07131 | 13.68142 | 2180 ft | 137 kts | 41° |
| 2026-04-30 20:59 | 51.08587 | 13.70143 | 1827 ft | 140 kts | 41° |
| 2026-04-30 20:59 | 51.09324 | 13.71162 | 1627 ft | 140 kts | 41° |
| 2026-04-30 21:00 | 51.10804 | 13.73188 | 1229 ft | 141 kts | 41° |
| 2026-04-30 21:00 | 51.12315 | 13.75258 | 849 ft | 145 kts | 42° |
| 2026-04-30 21:01 | 51.13621 | 13.77055 | 732 ft | 83 kts | 40° |
| 2026-04-30 21:01 | 51.13826 | 13.77336 | 730 ft | 36 kts | 41° |
| 2026-04-30 21:01 | 51.13896 | 13.77514 | 723 ft | 7 kts | 115° |
| 2026-04-30 21:02 | 51.13869 | 13.77569 | 723 ft | 6 kts | 130° |
| 2026-04-30 21:02 | 51.13841 | 13.77620 | 723 ft | 9 kts | 131° |
| 2026-04-30 21:02 | 51.13791 | 13.77704 | 721 ft | 12 kts | 146° |
| 2026-04-30 21:02 | 51.13781 | 13.77712 | 720 ft | 0 kts | 150° |
| 2026-04-30 21:03 | 51.13780 | 13.77716 | 715 ft | 3 kts | 153° |
| 2026-04-30 21:03 | 51.13730 | 13.77681 | 719 ft | 13 kts | 220° |
| 2026-04-30 21:03 | 51.13657 | 13.77590 | 724 ft | 12 kts | 220° |
| 2026-04-30 21:03 | 51.13638 | 13.77562 | 725 ft | 0 kts | 222° |
| 2026-04-30 21:04 | 51.13619 | 13.77533 | 724 ft | 8 kts | 224° |
| 2026-04-30 21:04 | 51.13569 | 13.77461 | 725 ft | 16 kts | 221° |
| 2026-04-30 21:04 | 51.13360 | 13.77175 | 730 ft | 17 kts | 220° |
| 2026-04-30 21:05 | 51.13274 | 13.77056 | 735 ft | 16 kts | 221° |
| 2026-04-30 21:05 | 51.13190 | 13.76940 | 739 ft | 15 kts | 221° |
| 2026-04-30 21:05 | 51.13113 | 13.76835 | 744 ft | 18 kts | 220° |
| 2026-04-30 21:05 | 51.13009 | 13.76691 | 743 ft | 15 kts | 221° |
| 2026-04-30 21:06 | 51.12964 | 13.76629 | 744 ft | 10 kts | 221° |
| 2026-04-30 21:06 | 51.12871 | 13.76500 | 745 ft | 16 kts | 221° |
| 2026-04-30 21:06 | 51.12810 | 13.76448 | 751 ft | 0 kts | 194° |
| 2026-04-30 21:06 | 51.12792 | 13.76463 | 750 ft | 10 kts | 146° |
| 2026-04-30 21:07 | 51.12730 | 13.76556 | 750 ft | 13 kts | 162° |
| 2026-04-30 21:07 | 51.12689 | 13.76522 | 752 ft | 4 kts | 214° |
| 2026-04-30 21:07 | 51.12679 | 13.76508 | 749 ft | 4 kts | 220° |
| 2026-04-30 21:07 | 51.12660 | 13.76482 | 752 ft | 1 kts | 220° |